createdAt,value
2023-05-14T00:00:36.836Z,31.82
2023-05-14T00:01:36.823Z,31.83
2023-05-14T00:02:36.907Z,31.79
2023-05-14T00:03:37.047Z,31.78
2023-05-14T00:04:36.929Z,31.81
2023-05-14T00:05:36.960Z,31.78
2023-05-14T00:06:36.950Z,31.78
2023-05-14T00:07:36.993Z,31.75
2023-05-14T00:08:37.025Z,31.82
2023-05-14T00:09:37.059Z,31.78
2023-05-14T00:10:37.065Z,31.74
2023-05-14T00:11:37.089Z,31.75
2023-05-14T00:12:37.106Z,31.73
2023-05-14T00:13:37.169Z,31.74
2023-05-14T00:14:37.177Z,31.71
2023-05-14T00:15:37.228Z,31.74
2023-05-14T00:16:37.275Z,31.68
2023-05-14T00:17:37.270Z,31.69
2023-05-14T00:18:37.299Z,31.75
2023-05-14T00:19:37.287Z,31.75
2023-05-14T00:20:37.318Z,31.74
2023-05-14T00:21:37.331Z,31.75
2023-05-14T00:22:37.358Z,31.75
2023-05-14T00:23:37.373Z,31.71
2023-05-14T00:24:37.409Z,31.72
2023-05-14T00:25:37.462Z,31.73
2023-05-14T00:26:37.482Z,31.69
2023-05-14T00:27:37.471Z,31.71
2023-05-14T00:28:37.501Z,31.69
2023-05-14T00:29:37.542Z,31.65
2023-05-14T00:30:37.576Z,31.66
2023-05-14T00:31:37.646Z,31.63
2023-05-14T00:32:37.651Z,31.65
2023-05-14T00:33:37.629Z,31.66
2023-05-14T00:34:37.682Z,31.65
2023-05-14T00:35:37.692Z,31.63
2023-05-14T00:36:37.693Z,31.64
2023-05-14T00:37:37.793Z,31.62
2023-05-14T00:38:37.765Z,31.62
2023-05-14T00:39:37.827Z,31.59
2023-05-14T00:40:37.807Z,31.61
2023-05-14T00:41:37.816Z,31.62
2023-05-14T00:42:37.839Z,31.61
2023-05-14T00:43:37.868Z,31.58
2023-05-14T00:44:37.919Z,31.59
2023-05-14T00:45:37.935Z,31.59
2023-05-14T00:46:38.003Z,31.59
2023-05-14T00:47:38.016Z,31.61
2023-05-14T00:48:38.007Z,31.62
2023-05-14T00:49:38.042Z,31.56
2023-05-14T00:50:38.063Z,31.56
2023-05-14T00:51:38.094Z,31.58
2023-05-14T00:52:38.112Z,31.55
2023-05-14T00:53:38.117Z,31.53
2023-05-14T00:54:38.155Z,31.56
2023-05-14T00:55:38.189Z,31.55
2023-05-14T00:56:38.191Z,31.52
2023-05-14T00:57:38.227Z,31.49
2023-05-14T00:58:38.252Z,31.55
2023-05-14T00:59:38.251Z,31.52
2023-05-14T01:00:38.296Z,31.56
2023-05-14T01:01:38.297Z,31.49
2023-05-14T01:02:38.426Z,31.52
2023-05-14T01:03:38.438Z,31.54
2023-05-14T01:04:38.378Z,31.50
2023-05-14T01:05:38.387Z,31.48
2023-05-14T01:06:38.422Z,31.42
2023-05-14T01:07:38.429Z,31.43
2023-05-14T01:08:38.460Z,31.45
2023-05-14T01:09:38.491Z,31.43
2023-05-14T01:10:38.501Z,31.42
2023-05-14T01:11:38.535Z,31.41
2023-05-14T01:12:38.530Z,31.36
2023-05-14T01:13:38.557Z,31.44
2023-05-14T01:14:38.581Z,31.41
2023-05-14T01:15:38.614Z,31.38
2023-05-14T01:16:38.672Z,31.36
2023-05-14T01:17:38.673Z,31.36
2023-05-14T01:18:38.716Z,31.36
2023-05-14T01:19:38.708Z,31.36
2023-05-14T01:20:38.716Z,31.29
2023-05-14T01:21:38.748Z,31.35
2023-05-14T01:22:38.764Z,31.35
2023-05-14T01:23:38.797Z,31.34
2023-05-14T01:24:38.814Z,31.27
2023-05-14T01:25:38.839Z,31.32
2023-05-14T01:26:38.848Z,31.29
2023-05-14T01:27:38.887Z,31.29
2023-05-14T01:28:38.894Z,31.31
2023-05-14T01:29:38.922Z,31.27
2023-05-14T01:30:38.961Z,31.29
2023-05-14T01:31:39.058Z,31.29
2023-05-14T01:32:39.009Z,31.29
2023-05-14T01:33:39.007Z,31.28
2023-05-14T01:34:39.050Z,31.23
2023-05-14T01:35:39.084Z,31.22
2023-05-14T01:36:39.077Z,31.22
2023-05-14T01:37:39.114Z,31.21
2023-05-14T01:38:39.142Z,31.28
2023-05-14T01:39:39.163Z,31.27
2023-05-14T01:40:39.177Z,31.25
2023-05-14T01:41:39.219Z,31.18
2023-05-14T01:42:39.234Z,31.23
2023-05-14T01:43:39.259Z,31.21
2023-05-14T01:44:39.291Z,31.21
2023-05-14T01:45:39.330Z,31.16
2023-05-14T01:46:39.377Z,31.19
2023-05-14T01:47:39.412Z,31.19
2023-05-14T01:48:39.376Z,31.18
2023-05-14T01:49:39.414Z,31.21
2023-05-14T01:50:39.456Z,31.21
2023-05-14T01:51:39.467Z,31.12
2023-05-14T01:52:39.476Z,31.17
2023-05-14T01:53:39.514Z,31.17
2023-05-14T01:54:39.535Z,31.12
2023-05-14T01:55:39.572Z,31.11
2023-05-14T01:56:39.583Z,31.11
2023-05-14T01:57:39.618Z,31.11
2023-05-14T01:58:39.630Z,31.12
2023-05-14T01:59:39.673Z,31.08
2023-05-14T02:00:39.711Z,31.09
2023-05-14T02:01:39.748Z,31.11
2023-05-14T02:02:39.791Z,31.08
2023-05-14T02:03:39.829Z,31.09
2023-05-14T02:04:39.819Z,31.09
2023-05-14T02:05:39.849Z,31.14
2023-05-14T02:06:39.872Z,31.08
2023-05-14T02:07:39.911Z,31.09
2023-05-14T02:08:39.914Z,31.07
2023-05-14T02:09:39.967Z,31.11
2023-05-14T02:10:39.994Z,31.11
2023-05-14T02:11:40.005Z,31.10
2023-05-14T02:12:40.042Z,31.07
2023-05-14T02:13:40.066Z,31.04
2023-05-14T02:14:40.095Z,31.09
2023-05-14T02:15:40.120Z,31.05
2023-05-14T02:16:40.152Z,31.04
2023-05-14T02:17:40.229Z,31.05
2023-05-14T02:18:40.214Z,31.02
2023-05-14T02:19:40.244Z,31.06
2023-05-14T02:20:40.255Z,31.02
2023-05-14T02:21:40.282Z,31.04
2023-05-14T02:22:40.301Z,31.01
2023-05-14T02:23:42.052Z,31.04
2023-05-14T02:24:40.355Z,30.98
2023-05-14T02:25:40.385Z,31.05
2023-05-14T02:26:40.425Z,30.99
2023-05-14T02:27:40.474Z,30.98
2023-05-14T02:28:40.479Z,30.98
2023-05-14T02:29:40.527Z,30.98
2023-05-14T02:30:40.545Z,30.98
2023-05-14T02:31:40.608Z,30.95
2023-05-14T02:32:40.657Z,30.96
2023-05-14T02:33:40.669Z,30.95
2023-05-14T02:34:40.666Z,30.94
2023-05-14T02:35:40.694Z,30.98
2023-05-14T02:36:40.703Z,30.91
2023-05-14T02:37:40.749Z,30.92
2023-05-14T02:38:40.761Z,30.95
2023-05-14T02:39:40.812Z,30.92
2023-05-14T02:40:40.820Z,30.91
2023-05-14T02:41:40.852Z,30.92
2023-05-14T02:42:40.900Z,30.92
2023-05-14T02:43:40.916Z,30.89
2023-05-14T02:44:40.948Z,30.91
2023-05-14T02:45:40.980Z,30.92
2023-05-14T02:46:41.067Z,30.92
2023-05-14T02:47:41.076Z,30.89
2023-05-14T02:48:41.085Z,30.89
2023-05-14T02:49:41.115Z,30.89
2023-05-14T02:50:41.153Z,30.86
2023-05-14T02:51:41.210Z,30.85
2023-05-14T02:52:41.202Z,30.86
2023-05-14T02:53:41.244Z,30.83
2023-05-14T02:54:41.282Z,30.84
2023-05-14T02:55:41.305Z,30.86
2023-05-14T02:56:41.339Z,30.84
2023-05-14T02:57:41.378Z,30.82
2023-05-14T02:58:41.396Z,30.85
2023-05-14T02:59:41.449Z,30.82
2023-05-14T03:00:41.502Z,30.79
2023-05-14T03:01:41.492Z,30.81
2023-05-14T03:02:41.624Z,30.78
2023-05-14T03:03:41.555Z,30.78
2023-05-14T03:04:41.603Z,30.78
2023-05-14T03:05:41.643Z,30.82
2023-05-14T03:06:41.659Z,30.81
2023-05-14T03:07:41.695Z,30.79
2023-05-14T03:08:41.755Z,30.78
2023-05-14T03:09:41.778Z,30.78
2023-05-14T03:10:41.802Z,30.72
2023-05-14T03:11:41.856Z,30.78
2023-05-14T03:12:41.892Z,30.78
2023-05-14T03:13:41.916Z,30.79
2023-05-14T03:14:41.932Z,30.75
2023-05-14T03:15:41.981Z,30.79
2023-05-14T03:16:42.055Z,30.76
2023-05-14T03:17:42.076Z,30.75
2023-05-14T03:18:42.118Z,30.71
2023-05-14T03:19:42.105Z,30.78
2023-05-14T03:20:42.190Z,30.77
2023-05-14T03:21:42.158Z,30.78
2023-05-14T03:22:42.186Z,30.71
2023-05-14T03:23:42.222Z,30.75
2023-05-14T03:24:42.276Z,30.75
2023-05-14T03:25:42.283Z,30.74
2023-05-14T03:26:42.326Z,30.76
2023-05-14T03:27:42.343Z,30.77
2023-05-14T03:28:42.392Z,30.68
2023-05-14T03:29:42.403Z,30.72
2023-05-14T03:30:42.530Z,30.71
2023-05-14T03:31:42.464Z,30.72
2023-05-14T03:32:42.528Z,30.72
2023-05-14T03:33:42.540Z,30.71
2023-05-14T03:34:42.578Z,30.69
2023-05-14T03:35:42.616Z,30.69
2023-05-14T03:36:42.640Z,30.68
2023-05-14T03:37:42.685Z,30.68
2023-05-14T03:38:42.718Z,30.68
2023-05-14T03:39:42.744Z,30.66
2023-05-14T03:40:42.770Z,30.66
2023-05-14T03:41:42.815Z,30.68
2023-05-14T03:42:42.838Z,30.71
2023-05-14T03:43:42.895Z,30.71
2023-05-14T03:44:42.895Z,30.71
2023-05-14T03:45:42.944Z,30.71
2023-05-14T03:46:42.988Z,30.66
2023-05-14T03:47:43.003Z,30.65
2023-05-14T03:48:43.111Z,30.68
2023-05-14T03:49:43.087Z,30.68
2023-05-14T03:50:43.100Z,30.68
2023-05-14T03:51:43.160Z,30.65
2023-05-14T03:52:43.184Z,30.68
2023-05-14T03:53:43.213Z,30.64
2023-05-14T03:54:43.257Z,30.65
2023-05-14T03:55:43.311Z,30.65
2023-05-14T03:56:43.351Z,30.62
2023-05-14T03:57:43.360Z,30.68
2023-05-14T03:58:43.374Z,30.64
2023-05-14T03:59:43.413Z,30.65
2023-05-14T04:00:43.474Z,30.65
2023-05-14T04:01:43.462Z,30.65
2023-05-14T04:02:43.648Z,30.66
2023-05-14T04:03:43.697Z,30.61
2023-05-14T04:04:43.656Z,30.65
2023-05-14T04:05:43.627Z,30.61
2023-05-14T04:06:43.649Z,30.61
2023-05-14T04:07:43.673Z,30.62
2023-05-14T04:08:43.721Z,30.64
2023-05-14T04:09:43.757Z,30.58
2023-05-14T04:10:43.791Z,30.58
2023-05-14T04:11:43.798Z,30.58
2023-05-14T04:12:43.868Z,30.58
2023-05-14T04:13:43.890Z,30.59
2023-05-14T04:14:43.933Z,30.53
2023-05-14T04:15:43.978Z,30.51
2023-05-14T04:16:44.038Z,30.56
2023-05-14T04:17:44.082Z,30.51
2023-05-14T04:18:44.105Z,30.49
2023-05-14T04:19:44.086Z,30.55
2023-05-14T04:20:44.110Z,30.51
2023-05-14T04:21:44.150Z,30.48
2023-05-14T04:22:44.176Z,30.45
2023-05-14T04:23:44.226Z,30.53
2023-05-14T04:24:44.229Z,30.51
2023-05-14T04:25:44.267Z,30.45
2023-05-14T04:26:44.320Z,30.46
2023-05-14T04:27:44.336Z,30.48
2023-05-14T04:28:44.368Z,30.41
2023-05-14T04:29:44.388Z,30.48
2023-05-14T04:30:44.420Z,30.45
2023-05-14T04:31:44.539Z,30.45
2023-05-14T04:32:44.524Z,30.45
2023-05-14T04:33:44.514Z,30.40
2023-05-14T04:34:44.545Z,30.40
2023-05-14T04:35:44.583Z,30.36
2023-05-14T04:36:44.642Z,30.40
2023-05-14T04:37:44.666Z,30.38
2023-05-14T04:38:44.685Z,30.41
2023-05-14T04:39:44.737Z,30.40
2023-05-14T04:40:44.765Z,30.37
2023-05-14T04:41:44.801Z,30.35
2023-05-14T04:42:44.839Z,30.38
2023-05-14T04:43:44.859Z,30.34
2023-05-14T04:44:44.901Z,30.35
2023-05-14T04:45:44.996Z,30.33
2023-05-14T04:46:44.966Z,30.35
2023-05-14T04:47:45.078Z,30.34
2023-05-14T04:48:45.074Z,30.30
2023-05-14T04:49:45.087Z,30.34
2023-05-14T04:50:45.131Z,30.32
2023-05-14T04:51:45.153Z,30.28
2023-05-14T04:52:45.184Z,30.35
2023-05-14T04:53:45.217Z,30.30
2023-05-14T04:54:45.294Z,30.28
2023-05-14T04:55:45.306Z,30.28
2023-05-14T04:56:45.354Z,30.27
2023-05-14T04:57:45.392Z,30.27
2023-05-14T04:58:45.414Z,30.33
2023-05-14T04:59:45.461Z,30.28
2023-05-14T05:00:45.496Z,30.25
2023-05-14T05:01:45.764Z,30.25
2023-05-14T05:02:45.645Z,30.25
2023-05-14T05:03:45.649Z,30.26
2023-05-14T05:04:45.695Z,30.24
2023-05-14T05:05:45.714Z,30.21
2023-05-14T05:06:45.745Z,30.24
2023-05-14T05:07:45.780Z,30.23
2023-05-14T05:08:45.816Z,30.24
2023-05-14T05:09:45.842Z,30.24
2023-05-14T05:10:45.895Z,30.22
2023-05-14T05:11:45.926Z,30.21
2023-05-14T05:12:45.947Z,30.21
2023-05-14T05:13:45.994Z,30.21
2023-05-14T05:14:46.045Z,30.18
2023-05-14T05:15:46.101Z,30.17
2023-05-14T05:16:46.122Z,30.18
2023-05-14T05:17:46.160Z,30.15
2023-05-14T05:18:46.211Z,30.18
2023-05-14T05:19:46.391Z,30.20
2023-05-14T05:20:46.265Z,30.17
2023-05-14T05:21:46.303Z,30.22
2023-05-14T05:22:46.355Z,30.15
2023-05-14T05:23:46.389Z,30.14
2023-05-14T05:24:47.040Z,30.18
2023-05-14T05:25:46.472Z,30.18
2023-05-14T05:26:46.493Z,30.18
2023-05-14T05:27:46.543Z,30.18
2023-05-14T05:28:46.587Z,30.20
2023-05-14T05:29:46.619Z,30.15
2023-05-14T05:30:46.625Z,30.11
2023-05-14T05:31:46.709Z,30.17
2023-05-14T05:32:46.762Z,30.15
2023-05-14T05:33:46.737Z,30.15
2023-05-14T05:34:46.792Z,30.15
2023-05-14T05:35:46.824Z,30.13
2023-05-14T05:36:46.864Z,30.14
2023-05-14T05:37:46.897Z,30.15
2023-05-14T05:38:46.919Z,30.11
2023-05-14T05:39:46.968Z,30.11
2023-05-14T05:40:47.003Z,30.08
2023-05-14T05:41:47.027Z,30.11
2023-05-14T05:42:47.081Z,30.10
2023-05-14T05:43:47.106Z,30.10
2023-05-14T05:44:47.119Z,30.05
2023-05-14T05:45:47.156Z,30.07
2023-05-14T05:46:47.256Z,30.07
2023-05-14T05:47:47.265Z,30.07
2023-05-14T05:48:47.252Z,30.04
2023-05-14T05:49:47.285Z,30.05
2023-05-14T05:50:47.315Z,30.01
2023-05-14T05:51:47.373Z,30.06
2023-05-14T05:52:47.395Z,30.03
2023-05-14T05:53:47.440Z,30.07
2023-05-14T05:54:47.481Z,30.06
2023-05-14T05:55:47.509Z,30.07
2023-05-14T05:56:47.534Z,29.97
2023-05-14T05:57:47.561Z,30.08
2023-05-14T05:58:47.599Z,30.04
2023-05-14T05:59:47.642Z,29.98
2023-05-14T06:00:47.679Z,30.04
2023-05-14T06:01:47.724Z,30.04
2023-05-14T06:02:47.768Z,29.99
2023-05-14T06:03:48.666Z,30.02
2023-05-14T06:04:47.825Z,30.04
2023-05-14T06:05:47.928Z,30.03
2023-05-14T06:06:47.864Z,29.97
2023-05-14T06:07:47.900Z,30.00
2023-05-14T06:08:47.933Z,30.03
2023-05-14T06:09:47.959Z,30.00
2023-05-14T06:10:48.009Z,30.03
2023-05-14T06:11:48.043Z,29.99
2023-05-14T06:12:48.071Z,30.03
2023-05-14T06:13:48.112Z,29.99
2023-05-14T06:14:48.142Z,29.98
2023-05-14T06:15:48.179Z,29.99
2023-05-14T06:16:48.234Z,30.00
2023-05-14T06:17:48.309Z,30.00
2023-05-14T06:18:48.355Z,29.97
2023-05-14T06:19:48.332Z,29.97
2023-05-14T06:20:48.358Z,29.93
2023-05-14T06:21:48.399Z,29.99
2023-05-14T06:22:48.447Z,29.91
2023-05-14T06:23:48.476Z,29.92
2023-05-14T06:24:48.501Z,29.87
2023-05-14T06:25:50.602Z,29.92
2023-05-14T06:26:48.573Z,29.95
2023-05-14T06:27:48.599Z,29.95
2023-05-14T06:28:48.629Z,29.87
2023-05-14T06:29:48.635Z,29.96
2023-05-14T06:30:48.690Z,29.92
2023-05-14T06:31:48.753Z,29.93
2023-05-14T06:32:48.759Z,29.94
2023-05-14T06:33:48.748Z,29.89
2023-05-14T06:34:48.790Z,29.89
2023-05-14T06:35:48.812Z,29.88
2023-05-14T06:36:48.841Z,29.92
2023-05-14T06:37:48.862Z,29.88
2023-05-14T06:38:48.896Z,29.88
2023-05-14T06:39:48.945Z,29.88
2023-05-14T06:40:48.946Z,29.89
2023-05-14T06:41:48.985Z,29.85
2023-05-14T06:42:49.004Z,29.88
2023-05-14T06:43:49.028Z,29.86
2023-05-14T06:44:49.067Z,29.86
2023-05-14T06:45:49.091Z,29.89
2023-05-14T06:46:49.135Z,29.85
2023-05-14T06:47:49.205Z,29.81
2023-05-14T06:48:49.223Z,29.89
2023-05-14T06:49:49.216Z,29.81
2023-05-14T06:50:49.271Z,29.82
2023-05-14T06:51:49.279Z,29.84
2023-05-14T06:52:49.283Z,29.82
2023-05-14T06:53:49.308Z,29.81
2023-05-14T06:54:49.351Z,29.83
2023-05-14T06:55:49.381Z,29.83
2023-05-14T06:56:49.398Z,29.82
2023-05-14T06:57:49.428Z,29.80
2023-05-14T06:58:49.477Z,29.82
2023-05-14T06:59:49.493Z,29.80
2023-05-14T07:00:49.501Z,29.77
2023-05-14T07:01:49.594Z,29.81
2023-05-14T07:02:49.615Z,29.81
2023-05-14T07:03:49.654Z,29.82
2023-05-14T07:04:49.676Z,29.82
2023-05-14T07:05:49.650Z,29.76
2023-05-14T07:06:49.681Z,29.80
2023-05-14T07:07:49.718Z,29.80
2023-05-14T07:08:49.727Z,29.77
2023-05-14T07:09:49.770Z,29.75
2023-05-14T07:10:49.794Z,29.81
2023-05-14T07:11:49.833Z,29.81
2023-05-14T07:12:49.847Z,29.77
2023-05-14T07:13:49.865Z,29.84
2023-05-14T07:14:49.912Z,29.83
2023-05-14T07:15:49.909Z,29.81
2023-05-14T07:16:49.991Z,29.86
2023-05-14T07:17:49.993Z,29.80
2023-05-14T07:18:50.000Z,29.81
2023-05-14T07:19:49.989Z,29.82
2023-05-14T07:20:50.022Z,29.80
2023-05-14T07:21:50.056Z,29.83
2023-05-14T07:22:50.040Z,29.81
2023-05-14T07:23:50.074Z,29.80
2023-05-14T07:24:50.084Z,29.79
2023-05-14T07:25:50.117Z,29.83
2023-05-14T07:26:50.140Z,29.82
2023-05-14T07:27:50.171Z,29.82
2023-05-14T07:28:50.187Z,29.86
2023-05-14T07:29:50.190Z,29.83
2023-05-14T07:30:50.198Z,29.82
2023-05-14T07:31:50.297Z,29.85
2023-05-14T07:32:50.247Z,29.83
2023-05-14T07:33:50.240Z,29.81
2023-05-14T07:34:50.280Z,29.85
2023-05-14T07:35:50.291Z,29.81
2023-05-14T07:36:50.304Z,29.82
2023-05-14T07:37:50.311Z,29.78
2023-05-14T07:38:50.327Z,29.78
2023-05-14T07:39:50.345Z,29.75
2023-05-14T07:40:50.343Z,29.75
2023-05-14T07:41:50.388Z,29.75
2023-05-14T07:42:50.394Z,29.75
2023-05-14T07:43:50.394Z,29.72
2023-05-14T07:44:50.386Z,29.74
2023-05-14T07:45:50.400Z,29.70
2023-05-14T07:46:50.454Z,29.72
2023-05-14T07:47:50.478Z,29.72
2023-05-14T07:48:50.436Z,29.75
2023-05-14T07:49:50.440Z,29.72
2023-05-14T07:50:50.450Z,29.71
2023-05-14T07:51:50.453Z,29.71
2023-05-14T07:52:50.458Z,29.68
2023-05-14T07:53:50.469Z,29.64
2023-05-14T07:54:50.841Z,29.70
2023-05-14T07:55:50.491Z,29.65
2023-05-14T07:56:50.508Z,29.71
2023-05-14T07:57:50.515Z,29.67
2023-05-14T07:58:50.499Z,29.67
2023-05-14T07:59:50.500Z,29.66
2023-05-14T08:00:50.501Z,29.67
2023-05-14T08:01:50.534Z,29.69
2023-05-14T08:02:50.600Z,29.65
2023-05-14T08:03:50.644Z,29.65
2023-05-14T08:04:50.560Z,29.69
2023-05-14T08:05:50.564Z,29.62
2023-05-14T08:06:50.560Z,29.65
2023-05-14T08:07:50.565Z,29.62
2023-05-14T08:08:50.551Z,29.65
2023-05-14T08:09:50.559Z,29.59
2023-05-14T08:10:50.625Z,29.59
2023-05-14T08:11:50.572Z,29.59
2023-05-14T08:12:50.576Z,29.60
2023-05-14T08:13:50.578Z,29.63
2023-05-14T08:14:50.574Z,29.63
2023-05-14T08:15:50.595Z,29.64
2023-05-14T08:16:50.743Z,29.68
2023-05-14T08:17:50.670Z,29.68
2023-05-14T08:18:50.620Z,29.62
2023-05-14T08:19:50.604Z,29.62
2023-05-14T08:20:50.689Z,29.62
2023-05-14T08:21:50.569Z,29.65
2023-05-14T08:22:50.586Z,29.64
2023-05-14T08:23:50.570Z,29.64
2023-05-14T08:24:50.578Z,29.58
2023-05-14T08:25:50.562Z,29.60
2023-05-14T08:26:50.561Z,29.58
2023-05-14T08:27:50.564Z,29.55
2023-05-14T08:28:50.547Z,29.60
2023-05-14T08:29:50.533Z,29.61
2023-05-14T08:30:50.546Z,29.60
2023-05-14T08:31:50.525Z,29.55
2023-05-14T08:32:50.559Z,29.61
2023-05-14T08:33:50.524Z,29.61
2023-05-14T08:34:50.509Z,29.60
2023-05-14T08:35:50.525Z,29.60
2023-05-14T08:36:50.512Z,29.60
2023-05-14T08:37:50.490Z,29.59
2023-05-14T08:38:50.502Z,29.57
2023-05-14T08:39:50.486Z,29.57
2023-05-14T08:40:50.478Z,29.61
2023-05-14T08:41:50.485Z,29.61
2023-05-14T08:42:50.488Z,29.62
2023-05-14T08:43:50.489Z,29.60
2023-05-14T08:44:50.497Z,29.64
2023-05-14T08:45:50.503Z,29.62
2023-05-14T08:46:50.535Z,29.61
2023-05-14T08:47:50.693Z,29.63
2023-05-14T08:48:50.579Z,29.62
2023-05-14T08:49:50.501Z,29.63
2023-05-14T08:50:50.519Z,29.66
2023-05-14T08:51:50.505Z,29.63
2023-05-14T08:52:50.527Z,29.64
2023-05-14T08:53:50.509Z,29.65
2023-05-14T08:54:50.531Z,29.63
2023-05-14T08:55:50.568Z,29.62
2023-05-14T08:56:51.899Z,29.64
2023-05-14T08:57:50.697Z,29.66
2023-05-14T08:58:50.670Z,29.68
2023-05-14T08:59:50.711Z,29.64
2023-05-14T09:00:50.748Z,29.61
2023-05-14T09:01:50.814Z,29.61
2023-05-14T09:02:50.848Z,29.66
2023-05-14T09:03:50.885Z,29.58
2023-05-14T09:04:50.876Z,29.65
2023-05-14T09:05:50.917Z,29.61
2023-05-14T09:06:50.934Z,29.64
2023-05-14T09:07:50.973Z,29.62
2023-05-14T09:08:51.005Z,29.58
2023-05-14T09:09:51.065Z,29.60
2023-05-14T09:10:51.112Z,29.59
2023-05-14T09:11:51.149Z,29.63
2023-05-14T09:12:51.206Z,29.62
2023-05-14T09:13:51.234Z,29.57
2023-05-14T09:14:51.291Z,29.57
2023-05-14T09:15:51.358Z,29.61
2023-05-14T09:16:51.453Z,29.55
2023-05-14T09:17:51.495Z,29.60
2023-05-14T09:18:51.570Z,29.57
2023-05-14T09:19:51.530Z,29.55
2023-05-14T09:20:51.598Z,29.55
2023-05-14T09:21:51.645Z,29.60
2023-05-14T09:22:51.697Z,29.54
2023-05-14T09:23:51.728Z,29.54
2023-05-14T09:24:51.787Z,29.57
2023-05-14T09:25:51.847Z,29.56
2023-05-14T09:26:51.888Z,29.59
2023-05-14T09:27:51.957Z,29.57
2023-05-14T09:28:51.999Z,29.60
2023-05-14T09:29:52.054Z,29.57
2023-05-14T09:30:52.104Z,29.59
2023-05-14T09:31:52.205Z,29.58
2023-05-14T09:32:52.211Z,29.59
2023-05-14T09:33:52.267Z,29.60
2023-05-14T09:34:52.299Z,29.62
2023-05-14T09:35:52.372Z,29.63
2023-05-14T09:36:52.428Z,29.67
2023-05-14T09:37:52.508Z,29.66
2023-05-14T09:38:52.526Z,29.66
2023-05-14T09:39:52.573Z,29.67
2023-05-14T09:40:52.623Z,29.68
2023-05-14T09:41:52.676Z,29.68
2023-05-14T09:42:52.719Z,29.66
2023-05-14T09:43:52.773Z,29.69
2023-05-14T09:44:52.827Z,29.68
2023-05-14T09:45:52.863Z,29.72
2023-05-14T09:46:53.056Z,29.69
2023-05-14T09:47:53.067Z,29.73
2023-05-14T09:48:53.016Z,29.70
2023-05-14T09:49:53.051Z,29.75
2023-05-14T09:50:53.126Z,29.71
2023-05-14T09:51:53.278Z,29.71
2023-05-14T09:52:53.224Z,29.70
2023-05-14T09:53:53.318Z,29.73
2023-05-14T09:54:53.311Z,29.75
2023-05-14T09:55:53.380Z,29.74
2023-05-14T09:56:55.580Z,29.73
2023-05-14T09:57:53.472Z,29.72
2023-05-14T09:58:53.529Z,29.75
2023-05-14T09:59:53.571Z,29.74
2023-05-14T10:00:53.623Z,29.73
2023-05-14T10:01:53.656Z,29.73
2023-05-14T10:02:53.733Z,29.70
2023-05-14T10:03:53.820Z,29.72
2023-05-14T10:04:53.874Z,29.70
2023-05-14T10:05:53.885Z,29.70
2023-05-14T10:06:53.931Z,29.70
2023-05-14T10:07:53.978Z,29.72
2023-05-14T10:08:54.024Z,29.75
2023-05-14T10:09:54.024Z,29.71
2023-05-14T10:10:54.056Z,29.72
2023-05-14T10:11:54.116Z,29.73
2023-05-14T10:12:54.154Z,29.75
2023-05-14T10:13:54.190Z,29.69
2023-05-14T10:14:54.222Z,29.70
2023-05-14T10:15:54.250Z,29.72
2023-05-14T10:16:54.317Z,29.72
2023-05-14T10:17:54.357Z,29.72
2023-05-14T10:18:55.802Z,29.66
2023-05-14T10:19:54.323Z,29.72
2023-05-14T10:20:54.324Z,29.69
2023-05-14T10:21:54.325Z,29.71
2023-05-14T10:22:54.316Z,29.69
2023-05-14T10:23:54.311Z,29.76
2023-05-14T10:24:54.319Z,29.73
2023-05-14T10:25:54.301Z,29.69
2023-05-14T10:26:54.282Z,29.68
2023-05-14T10:27:54.286Z,29.71
2023-05-14T10:28:54.273Z,29.68
2023-05-14T10:29:54.264Z,29.69
2023-05-14T10:30:54.286Z,29.72
2023-05-14T10:31:54.272Z,29.71
2023-05-14T10:32:54.281Z,29.71
2023-05-14T10:33:54.266Z,29.71
2023-05-14T10:34:54.217Z,29.68
2023-05-14T10:35:54.229Z,29.69
2023-05-14T10:36:54.205Z,29.66
2023-05-14T10:37:54.214Z,29.68
2023-05-14T10:38:54.200Z,29.72
2023-05-14T10:39:54.224Z,29.69
2023-05-14T10:40:54.374Z,29.74
2023-05-14T10:41:54.206Z,29.69
2023-05-14T10:42:54.173Z,29.65
2023-05-14T10:43:54.160Z,29.71
2023-05-14T10:44:54.186Z,29.71
2023-05-14T10:45:54.161Z,29.73
2023-05-14T10:46:54.213Z,29.72
2023-05-14T10:47:54.182Z,29.72
2023-05-14T10:48:54.125Z,29.66
2023-05-14T10:49:54.120Z,29.74
2023-05-14T10:50:54.137Z,29.74
2023-05-14T10:51:54.105Z,29.68
2023-05-14T10:52:54.118Z,29.68
2023-05-14T10:53:54.088Z,29.69
2023-05-14T10:54:54.104Z,29.71
2023-05-14T10:55:54.080Z,29.68
2023-05-14T10:56:54.078Z,29.71
2023-05-14T10:57:54.078Z,29.69
2023-05-14T10:58:54.052Z,29.73
2023-05-14T10:59:54.041Z,29.72
2023-05-14T11:00:54.035Z,29.71
2023-05-14T11:01:54.090Z,29.69
2023-05-14T11:02:54.064Z,29.72
2023-05-14T11:03:54.053Z,29.64
2023-05-14T11:04:54.026Z,29.72
2023-05-14T11:05:54.021Z,29.68
2023-05-14T11:06:54.009Z,29.72
2023-05-14T11:07:53.997Z,29.74
2023-05-14T11:08:54.025Z,29.66
2023-05-14T11:09:53.996Z,29.72
2023-05-14T11:10:53.986Z,29.68
2023-05-14T11:11:53.968Z,29.68
2023-05-14T11:12:54.049Z,29.69
2023-05-14T11:13:54.015Z,29.68
2023-05-14T11:14:53.991Z,29.66
2023-05-14T11:15:53.981Z,29.68
2023-05-14T11:16:54.016Z,29.69
2023-05-14T11:17:54.014Z,29.61
2023-05-14T11:18:53.989Z,29.65
2023-05-14T11:19:53.911Z,29.66
2023-05-14T11:20:53.919Z,29.66
2023-05-14T11:21:53.932Z,29.61
2023-05-14T11:22:53.963Z,29.64
2023-05-14T11:23:53.919Z,29.65
2023-05-14T11:24:53.933Z,29.66
2023-05-14T11:25:54.004Z,29.67
2023-05-14T11:26:53.966Z,29.62
2023-05-14T11:27:53.989Z,29.63
2023-05-14T11:28:54.010Z,29.64
2023-05-14T11:29:54.058Z,29.64
2023-05-14T11:30:54.078Z,29.64
2023-05-14T11:31:54.117Z,29.66
2023-05-14T11:32:54.215Z,29.62
2023-05-14T11:33:54.141Z,29.65
2023-05-14T11:34:54.164Z,29.68
2023-05-14T11:35:54.181Z,29.61
2023-05-14T11:36:54.237Z,29.61
2023-05-14T11:37:54.269Z,29.65
2023-05-14T11:38:54.299Z,29.66
2023-05-14T11:39:54.327Z,29.65
2023-05-14T11:40:54.392Z,29.66
2023-05-14T11:41:54.416Z,29.65
2023-05-14T11:42:54.467Z,29.66
2023-05-14T11:43:54.486Z,29.63
2023-05-14T11:44:54.521Z,29.66
2023-05-14T11:45:54.592Z,29.62
2023-05-14T11:46:54.606Z,29.62
2023-05-14T11:47:54.734Z,29.63
2023-05-14T11:48:54.699Z,29.65
2023-05-14T11:49:54.762Z,29.65
2023-05-14T11:50:54.783Z,29.69
2023-05-14T11:51:54.823Z,29.65
2023-05-14T11:52:54.896Z,29.65
2023-05-14T11:53:54.932Z,29.70
2023-05-14T11:54:54.976Z,29.65
2023-05-14T11:55:55.047Z,29.72
2023-05-14T11:56:55.092Z,29.63
2023-05-14T11:57:55.144Z,29.67
2023-05-14T11:58:55.190Z,29.63
2023-05-14T11:59:55.245Z,29.64
2023-05-14T12:00:55.282Z,29.62
2023-05-14T12:01:55.355Z,29.62
2023-05-14T12:02:55.518Z,29.60
2023-05-14T12:03:55.553Z,29.62
2023-05-14T12:04:55.587Z,29.63
2023-05-14T12:05:55.543Z,29.58
2023-05-14T12:06:55.585Z,29.62
2023-05-14T12:07:55.647Z,29.60
2023-05-14T12:08:55.701Z,29.64
2023-05-14T12:09:55.722Z,29.59
2023-05-14T12:10:55.769Z,29.63
2023-05-14T12:11:55.841Z,29.63
2023-05-14T12:12:55.877Z,29.62
2023-05-14T12:13:55.948Z,29.61
2023-05-14T12:14:55.977Z,29.63
2023-05-14T12:15:56.099Z,29.63
2023-05-14T12:16:56.105Z,29.65
2023-05-14T12:17:56.195Z,29.64
2023-05-14T12:18:56.220Z,29.60
2023-05-14T12:19:56.246Z,29.62
2023-05-14T12:20:56.286Z,29.62
2023-05-14T12:21:56.319Z,29.57
2023-05-14T12:22:56.363Z,29.60
2023-05-14T12:23:56.392Z,29.56
2023-05-14T12:24:56.471Z,29.59
2023-05-14T12:25:56.516Z,29.62
2023-05-14T12:26:56.550Z,29.56
2023-05-14T12:27:56.616Z,29.53
2023-05-14T12:28:56.641Z,29.62
2023-05-14T12:29:57.613Z,29.63
2023-05-14T12:30:56.804Z,29.62
2023-05-14T12:31:56.818Z,29.60
2023-05-14T12:32:56.921Z,29.57
2023-05-14T12:33:56.885Z,29.59
2023-05-14T12:34:56.932Z,29.62
2023-05-14T12:35:58.806Z,29.60
2023-05-14T12:36:56.983Z,29.60
2023-05-14T12:37:56.968Z,29.60
2023-05-14T12:38:56.955Z,29.60
2023-05-14T12:39:56.966Z,29.57
2023-05-14T12:40:56.944Z,29.58
2023-05-14T12:41:56.947Z,29.63
2023-05-14T12:42:57.078Z,29.62
2023-05-14T12:43:56.924Z,29.67
2023-05-14T12:44:56.929Z,29.61
2023-05-14T12:45:56.903Z,29.66
2023-05-14T12:46:56.961Z,29.67
2023-05-14T12:47:57.010Z,29.65
2023-05-14T12:48:56.882Z,29.69
2023-05-14T12:49:56.879Z,29.66
2023-05-14T12:50:56.884Z,29.63
2023-05-14T12:52:13.106Z,29.70
2023-05-14T12:52:57.888Z,29.68